Details for EasyJet at EGGD




Go Back


Latest METAR
Local Time

EGGD 220820Z AUTO 21004KT 9999 -RA SCT042 10/10 Q1019
22/09/2018, 09:51:47

Description
Results
EasyJet Logo
Number of Pilots based at EGGD
3 Pilots Based here
Number of EasyJet Flights Departed from EGGD
16 Flights Departed
Number of EasyJet Flights Arrived at EGGD
12 Flights Arrived
Number of EasyJet Schedules Departing from EGGD
146 Schedules
Number of EasyJet Schedules Arriving at EGGD
146 Schedules
Number of EasyJet Schedules Departing from EGGD availible today
51 Schedules Today
Number of EasyJet Schedules Arriving at EGGD availible today
51 Schedules Today
Average Landing Rate at EGGD
-227 fpm
EasyJet Average Landing Rate at EGGD
-243 fpm
Total Fuel Purchased at EGGD by EasyJet
77,006.40 kgs / 169,768.31 lbs

Pilots Based at EGGD


Pilot ID
Pilot Name
Pilot Rank
No. of Flights
No. of Flying Hours
Mark Callison
925
2576.5
Justin Fryer
1
2.32
Ken Hamilton
9
17.11
Content